sensor_id;sensor_type;location;lat;lon;timestamp;P1;durP1;ratioP1;P2;durP2;ratioP2
47335;SDS011;33068;51.990;5.926;2022-12-18T00:01:14;94.13;;;36.92;;
47335;SDS011;33068;51.990;5.926;2022-12-18T00:03:42;84.90;;;34.20;;
47335;SDS011;33068;51.990;5.926;2022-12-18T00:06:09;103.43;;;36.58;;
47335;SDS011;33068;51.990;5.926;2022-12-18T00:08:39;78.55;;;34.90;;
47335;SDS011;33068;51.990;5.926;2022-12-18T00:11:07;88.65;;;37.17;;
47335;SDS011;33068;51.990;5.926;2022-12-18T00:13:37;98.63;;;35.20;;
47335;SDS011;33068;51.990;5.926;2022-12-18T00:16:06;82.10;;;33.38;;
47335;SDS011;33068;51.990;5.926;2022-12-18T00:18:35;96.65;;;37.17;;
47335;SDS011;33068;51.990;5.926;2022-12-18T00:21:03;90.38;;;36.38;;
47335;SDS011;33068;51.990;5.926;2022-12-18T00:23:32;88.05;;;35.20;;
47335;SDS011;33068;51.990;5.926;2022-12-18T00:26:00;93.60;;;36.67;;
47335;SDS011;33068;51.990;5.926;2022-12-18T00:28:29;98.15;;;36.97;;
47335;SDS011;33068;51.990;5.926;2022-12-18T00:31:01;90.55;;;37.47;;
47335;SDS011;33068;51.990;5.926;2022-12-18T00:33:28;91.03;;;35.70;;
47335;SDS011;33068;51.990;5.926;2022-12-18T00:35:59;93.03;;;35.95;;
47335;SDS011;33068;51.990;5.926;2022-12-18T00:38:27;94.45;;;36.35;;
47335;SDS011;33068;51.990;5.926;2022-12-18T00:40:54;97.65;;;38.47;;
47335;SDS011;33068;51.990;5.926;2022-12-18T00:43:21;84.43;;;34.17;;
47335;SDS011;33068;51.990;5.926;2022-12-18T00:45:47;88.15;;;36.33;;
47335;SDS011;33068;51.990;5.926;2022-12-18T00:48:16;91.18;;;35.63;;
47335;SDS011;33068;51.990;5.926;2022-12-18T00:50:43;88.95;;;36.28;;
47335;SDS011;33068;51.990;5.926;2022-12-18T00:53:10;86.40;;;33.63;;
47335;SDS011;33068;51.990;5.926;2022-12-18T00:55:38;84.97;;;35.63;;
47335;SDS011;33068;51.990;5.926;2022-12-18T00:58:06;89.88;;;34.88;;
47335;SDS011;33068;51.990;5.926;2022-12-18T01:00:34;86.65;;;34.00;;
47335;SDS011;33068;51.990;5.926;2022-12-18T01:03:03;77.35;;;33.17;;
47335;SDS011;33068;51.990;5.926;2022-12-18T01:05:32;92.32;;;32.42;;
47335;SDS011;33068;51.990;5.926;2022-12-18T01:07:59;82.57;;;32.85;;
47335;SDS011;33068;51.990;5.926;2022-12-18T01:10:26;83.13;;;32.35;;
47335;SDS011;33068;51.990;5.926;2022-12-18T01:12:56;80.60;;;31.23;;
47335;SDS011;33068;51.990;5.926;2022-12-18T01:15:23;78.53;;;30.20;;
47335;SDS011;33068;51.990;5.926;2022-12-18T01:17:51;76.75;;;32.50;;
47335;SDS011;33068;51.990;5.926;2022-12-18T01:20:19;79.97;;;30.52;;
47335;SDS011;33068;51.990;5.926;2022-12-18T01:22:47;81.38;;;32.00;;
47335;SDS011;33068;51.990;5.926;2022-12-18T01:25:14;83.28;;;32.33;;
47335;SDS011;33068;51.990;5.926;2022-12-18T01:27:42;76.78;;;32.78;;
47335;SDS011;33068;51.990;5.926;2022-12-18T01:30:09;85.97;;;32.38;;
47335;SDS011;33068;51.990;5.926;2022-12-18T01:32:37;84.82;;;33.80;;
47335;SDS011;33068;51.990;5.926;2022-12-18T01:35:04;91.95;;;33.28;;
47335;SDS011;33068;51.990;5.926;2022-12-18T01:37:32;84.55;;;32.33;;
47335;SDS011;33068;51.990;5.926;2022-12-18T01:40:01;88.30;;;33.47;;
47335;SDS011;33068;51.990;5.926;2022-12-18T01:42:28;84.18;;;32.33;;
47335;SDS011;33068;51.990;5.926;2022-12-18T01:45:00;92.80;;;33.75;;
47335;SDS011;33068;51.990;5.926;2022-12-18T01:47:48;99.03;;;31.80;;
47335;SDS011;33068;51.990;5.926;2022-12-18T01:50:21;82.07;;;32.00;;
47335;SDS011;33068;51.990;5.926;2022-12-18T01:52:52;88.53;;;32.15;;
47335;SDS011;33068;51.990;5.926;2022-12-18T01:55:23;84.70;;;31.65;;
47335;SDS011;33068;51.990;5.926;2022-12-18T01:57:52;94.57;;;33.08;;
47335;SDS011;33068;51.990;5.926;2022-12-18T02:00:21;83.18;;;32.15;;
47335;SDS011;33068;51.990;5.926;2022-12-18T02:02:50;69.00;;;30.48;;
47335;SDS011;33068;51.990;5.926;2022-12-18T02:05:19;84.97;;;30.17;;
47335;SDS011;33068;51.990;5.926;2022-12-18T02:07:57;76.53;;;30.50;;
47335;SDS011;33068;51.990;5.926;2022-12-18T02:10:36;77.93;;;30.15;;
47335;SDS011;33068;51.990;5.926;2022-12-18T02:13:12;79.07;;;32.05;;
47335;SDS011;33068;51.990;5.926;2022-12-18T02:15:47;77.35;;;29.63;;
47335;SDS011;33068;51.990;5.926;2022-12-18T02:18:22;68.82;;;29.58;;
47335;SDS011;33068;51.990;5.926;2022-12-18T02:20:54;80.25;;;30.45;;
47335;SDS011;33068;51.990;5.926;2022-12-18T02:23:40;74.32;;;28.33;;
47335;SDS011;33068;51.990;5.926;2022-12-18T02:26:16;67.45;;;28.10;;
47335;SDS011;33068;51.990;5.926;2022-12-18T02:28:51;68.40;;;30.20;;
47335;SDS011;33068;51.990;5.926;2022-12-18T02:31:22;63.15;;;27.02;;
47335;SDS011;33068;51.990;5.926;2022-12-18T02:33:53;67.28;;;27.83;;
47335;SDS011;33068;51.990;5.926;2022-12-18T02:36:22;75.47;;;30.15;;
47335;SDS011;33068;51.990;5.926;2022-12-18T02:38:52;75.55;;;27.48;;
47335;SDS011;33068;51.990;5.926;2022-12-18T02:41:25;70.40;;;28.95;;
47335;SDS011;33068;51.990;5.926;2022-12-18T02:43:55;69.88;;;27.45;;
47335;SDS011;33068;51.990;5.926;2022-12-18T02:46:25;68.63;;;27.63;;
47335;SDS011;33068;51.990;5.926;2022-12-18T02:49:01;68.18;;;27.70;;
47335;SDS011;33068;51.990;5.926;2022-12-18T02:51:34;64.40;;;25.83;;
47335;SDS011;33068;51.990;5.926;2022-12-18T02:54:09;71.07;;;27.90;;
47335;SDS011;33068;51.990;5.926;2022-12-18T02:56:43;64.28;;;26.15;;
47335;SDS011;33068;51.990;5.926;2022-12-18T02:59:17;66.50;;;26.08;;
47335;SDS011;33068;51.990;5.926;2022-12-18T03:01:55;63.20;;;27.02;;
47335;SDS011;33068;51.990;5.926;2022-12-18T03:04:29;72.05;;;27.48;;
47335;SDS011;33068;51.990;5.926;2022-12-18T03:07:08;65.30;;;25.80;;
47335;SDS011;33068;51.990;5.926;2022-12-18T03:09:41;66.00;;;26.00;;
47335;SDS011;33068;51.990;5.926;2022-12-18T03:12:15;71.53;;;26.40;;
47335;SDS011;33068;51.990;5.926;2022-12-18T03:14:54;59.70;;;26.10;;
47335;SDS011;33068;51.990;5.926;2022-12-18T03:17:27;62.85;;;25.17;;
47335;SDS011;33068;51.990;5.926;2022-12-18T03:19:59;56.92;;;23.77;;
47335;SDS011;33068;51.990;5.926;2022-12-18T03:22:32;55.05;;;24.30;;
47335;SDS011;33068;51.990;5.926;2022-12-18T03:25:03;61.80;;;24.98;;
47335;SDS011;33068;51.990;5.926;2022-12-18T03:27:35;62.38;;;25.52;;
47335;SDS011;33068;51.990;5.926;2022-12-18T03:30:08;62.95;;;24.50;;
47335;SDS011;33068;51.990;5.926;2022-12-18T03:32:39;59.00;;;22.85;;
47335;SDS011;33068;51.990;5.926;2022-12-18T03:35:11;56.05;;;24.25;;
47335;SDS011;33068;51.990;5.926;2022-12-18T03:37:43;60.78;;;23.10;;
47335;SDS011;33068;51.990;5.926;2022-12-18T03:40:11;52.97;;;24.58;;
47335;SDS011;33068;51.990;5.926;2022-12-18T03:42:42;56.28;;;23.83;;
47335;SDS011;33068;51.990;5.926;2022-12-18T03:45:14;61.60;;;23.90;;
47335;SDS011;33068;51.990;5.926;2022-12-18T03:47:52;56.85;;;23.63;;
47335;SDS011;33068;51.990;5.926;2022-12-18T03:50:30;55.92;;;22.50;;
47335;SDS011;33068;51.990;5.926;2022-12-18T03:53:06;56.83;;;21.88;;
47335;SDS011;33068;51.990;5.926;2022-12-18T03:55:46;55.13;;;22.08;;
47335;SDS011;33068;51.990;5.926;2022-12-18T03:58:17;49.95;;;21.95;;
47335;SDS011;33068;51.990;5.926;2022-12-18T04:00:55;44.38;;;21.40;;
47335;SDS011;33068;51.990;5.926;2022-12-18T04:03:25;48.83;;;21.55;;
47335;SDS011;33068;51.990;5.926;2022-12-18T04:05:56;47.92;;;21.45;;
47335;SDS011;33068;51.990;5.926;2022-12-18T04:08:28;53.28;;;20.52;;
47335;SDS011;33068;51.990;5.926;2022-12-18T04:11:01;49.22;;;21.58;;
47335;SDS011;33068;51.990;5.926;2022-12-18T04:13:31;52.80;;;21.23;;
47335;SDS011;33068;51.990;5.926;2022-12-18T04:16:03;40.55;;;20.45;;
47335;SDS011;33068;51.990;5.926;2022-12-18T04:18:31;53.88;;;21.15;;
47335;SDS011;33068;51.990;5.926;2022-12-18T04:20:59;50.88;;;21.77;;
47335;SDS011;33068;51.990;5.926;2022-12-18T04:23:27;46.58;;;20.35;;
47335;SDS011;33068;51.990;5.926;2022-12-18T04:25:56;47.83;;;20.45;;
47335;SDS011;33068;51.990;5.926;2022-12-18T04:28:48;45.80;;;20.88;;
47335;SDS011;33068;51.990;5.926;2022-12-18T04:31:15;45.10;;;19.02;;
47335;SDS011;33068;51.990;5.926;2022-12-18T04:33:42;41.03;;;18.85;;
47335;SDS011;33068;51.990;5.926;2022-12-18T04:36:09;43.30;;;18.85;;
47335;SDS011;33068;51.990;5.926;2022-12-18T04:38:38;47.22;;;19.75;;
47335;SDS011;33068;51.990;5.926;2022-12-18T04:41:10;38.65;;;18.73;;
47335;SDS011;33068;51.990;5.926;2022-12-18T04:43:43;38.92;;;18.77;;
47335;SDS011;33068;51.990;5.926;2022-12-18T04:46:11;49.58;;;18.98;;
47335;SDS011;33068;51.990;5.926;2022-12-18T04:48:39;38.55;;;18.40;;
47335;SDS011;33068;51.990;5.926;2022-12-18T04:51:06;38.03;;;19.40;;
47335;SDS011;33068;51.990;5.926;2022-12-18T04:53:34;39.40;;;18.13;;
47335;SDS011;33068;51.990;5.926;2022-12-18T04:56:04;43.08;;;18.42;;
47335;SDS011;33068;51.990;5.926;2022-12-18T04:58:33;40.42;;;17.75;;
47335;SDS011;33068;51.990;5.926;2022-12-18T05:01:00;44.88;;;18.05;;
47335;SDS011;33068;51.990;5.926;2022-12-18T05:03:30;40.83;;;17.77;;
47335;SDS011;33068;51.990;5.926;2022-12-18T05:05:57;45.13;;;18.55;;
47335;SDS011;33068;51.990;5.926;2022-12-18T05:08:24;39.03;;;18.67;;
47335;SDS011;33068;51.990;5.926;2022-12-18T05:10:57;36.95;;;17.13;;
47335;SDS011;33068;51.990;5.926;2022-12-18T05:13:25;37.63;;;17.58;;
47335;SDS011;33068;51.990;5.926;2022-12-18T05:15:52;39.80;;;16.98;;
47335;SDS011;33068;51.990;5.926;2022-12-18T05:18:19;37.22;;;17.30;;
47335;SDS011;33068;51.990;5.926;2022-12-18T05:20:48;39.10;;;18.40;;
47335;SDS011;33068;51.990;5.926;2022-12-18T05:23:16;37.80;;;17.77;;
47335;SDS011;33068;51.990;5.926;2022-12-18T05:25:46;37.92;;;17.60;;
47335;SDS011;33068;51.990;5.926;2022-12-18T05:28:14;42.20;;;18.13;;
47335;SDS011;33068;51.990;5.926;2022-12-18T05:30:41;38.92;;;18.10;;
47335;SDS011;33068;51.990;5.926;2022-12-18T05:33:08;31.88;;;17.33;;
47335;SDS011;33068;51.990;5.926;2022-12-18T05:35:35;40.80;;;18.15;;
47335;SDS011;33068;51.990;5.926;2022-12-18T05:38:03;34.80;;;16.30;;
47335;SDS011;33068;51.990;5.926;2022-12-18T05:40:30;35.95;;;17.10;;
47335;SDS011;33068;51.990;5.926;2022-12-18T05:42:57;36.40;;;16.17;;
47335;SDS011;33068;51.990;5.926;2022-12-18T05:45:24;37.55;;;16.38;;
47335;SDS011;33068;51.990;5.926;2022-12-18T05:47:51;34.50;;;15.95;;
47335;SDS011;33068;51.990;5.926;2022-12-18T05:50:19;36.13;;;16.27;;
47335;SDS011;33068;51.990;5.926;2022-12-18T05:52:46;31.90;;;15.88;;
47335;SDS011;33068;51.990;5.926;2022-12-18T05:55:14;31.77;;;16.17;;
47335;SDS011;33068;51.990;5.926;2022-12-18T05:57:41;37.03;;;16.17;;
47335;SDS011;33068;51.990;5.926;2022-12-18T06:00:09;34.83;;;16.88;;
47335;SDS011;33068;51.990;5.926;2022-12-18T06:02:40;35.15;;;15.82;;
47335;SDS011;33068;51.990;5.926;2022-12-18T06:05:07;32.45;;;15.15;;
47335;SDS011;33068;51.990;5.926;2022-12-18T06:07:34;29.83;;;16.38;;
47335;SDS011;33068;51.990;5.926;2022-12-18T06:10:01;35.40;;;16.15;;
47335;SDS011;33068;51.990;5.926;2022-12-18T06:12:30;33.00;;;15.95;;
47335;SDS011;33068;51.990;5.926;2022-12-18T06:14:58;38.65;;;17.98;;
47335;SDS011;33068;51.990;5.926;2022-12-18T06:17:27;32.95;;;16.30;;
47335;SDS011;33068;51.990;5.926;2022-12-18T06:19:55;33.08;;;16.83;;
47335;SDS011;33068;51.990;5.926;2022-12-18T06:22:22;36.22;;;17.08;;
47335;SDS011;33068;51.990;5.926;2022-12-18T06:24:49;35.50;;;16.67;;
47335;SDS011;33068;51.990;5.926;2022-12-18T06:27:16;39.63;;;17.30;;
47335;SDS011;33068;51.990;5.926;2022-12-18T06:29:45;35.15;;;17.42;;
47335;SDS011;33068;51.990;5.926;2022-12-18T06:32:12;36.33;;;17.40;;
47335;SDS011;33068;51.990;5.926;2022-12-18T06:34:39;38.65;;;17.20;;
47335;SDS011;33068;51.990;5.926;2022-12-18T06:37:06;32.92;;;16.67;;
47335;SDS011;33068;51.990;5.926;2022-12-18T06:39:33;35.03;;;17.95;;
47335;SDS011;33068;51.990;5.926;2022-12-18T06:42:00;40.95;;;17.63;;
47335;SDS011;33068;51.990;5.926;2022-12-18T06:44:27;40.65;;;16.98;;
47335;SDS011;33068;51.990;5.926;2022-12-18T06:46:56;36.33;;;17.25;;
47335;SDS011;33068;51.990;5.926;2022-12-18T06:49:23;31.30;;;16.17;;
47335;SDS011;33068;51.990;5.926;2022-12-18T06:51:50;35.75;;;17.52;;
47335;SDS011;33068;51.990;5.926;2022-12-18T06:54:17;30.95;;;16.15;;
47335;SDS011;33068;51.990;5.926;2022-12-18T06:56:44;40.38;;;17.08;;
47335;SDS011;33068;51.990;5.926;2022-12-18T06:59:12;37.53;;;17.30;;
47335;SDS011;33068;51.990;5.926;2022-12-18T07:01:39;37.08;;;17.27;;
47335;SDS011;33068;51.990;5.926;2022-12-18T07:04:08;36.13;;;16.48;;
47335;SDS011;33068;51.990;5.926;2022-12-18T07:06:35;31.02;;;15.23;;
47335;SDS011;33068;51.990;5.926;2022-12-18T07:09:05;34.42;;;16.52;;
47335;SDS011;33068;51.990;5.926;2022-12-18T07:11:33;33.78;;;17.60;;
47335;SDS011;33068;51.990;5.926;2022-12-18T07:14:00;38.95;;;19.02;;
47335;SDS011;33068;51.990;5.926;2022-12-18T07:16:27;36.47;;;17.33;;
47335;SDS011;33068;51.990;5.926;2022-12-18T07:18:54;33.55;;;16.75;;
47335;SDS011;33068;51.990;5.926;2022-12-18T07:21:23;41.60;;;17.13;;
47335;SDS011;33068;51.990;5.926;2022-12-18T07:23:51;38.80;;;17.08;;
47335;SDS011;33068;51.990;5.926;2022-12-18T07:26:19;35.53;;;17.63;;
47335;SDS011;33068;51.990;5.926;2022-12-18T07:28:47;36.97;;;16.92;;
47335;SDS011;33068;51.990;5.926;2022-12-18T07:31:15;33.30;;;16.38;;
47335;SDS011;33068;51.990;5.926;2022-12-18T07:33:43;35.35;;;16.33;;
47335;SDS011;33068;51.990;5.926;2022-12-18T07:36:11;29.60;;;15.20;;
47335;SDS011;33068;51.990;5.926;2022-12-18T07:38:40;32.28;;;16.33;;
47335;SDS011;33068;51.990;5.926;2022-12-18T07:41:08;28.48;;;15.32;;
47335;SDS011;33068;51.990;5.926;2022-12-18T07:43:37;32.55;;;15.25;;
47335;SDS011;33068;51.990;5.926;2022-12-18T07:46:05;33.55;;;15.38;;
47335;SDS011;33068;51.990;5.926;2022-12-18T07:48:32;34.17;;;14.48;;
47335;SDS011;33068;51.990;5.926;2022-12-18T07:50:59;33.45;;;15.73;;
47335;SDS011;33068;51.990;5.926;2022-12-18T07:53:27;31.65;;;15.80;;
47335;SDS011;33068;51.990;5.926;2022-12-18T07:55:57;28.85;;;15.20;;
47335;SDS011;33068;51.990;5.926;2022-12-18T07:58:25;31.92;;;14.98;;
47335;SDS011;33068;51.990;5.926;2022-12-18T08:00:52;32.72;;;15.57;;
47335;SDS011;33068;51.990;5.926;2022-12-18T08:03:19;26.55;;;14.48;;
47335;SDS011;33068;51.990;5.926;2022-12-18T08:05:46;31.92;;;15.07;;
47335;SDS011;33068;51.990;5.926;2022-12-18T08:08:13;28.98;;;14.57;;
47335;SDS011;33068;51.990;5.926;2022-12-18T08:10:40;30.33;;;14.38;;
47335;SDS011;33068;51.990;5.926;2022-12-18T08:13:08;27.02;;;14.02;;
47335;SDS011;33068;51.990;5.926;2022-12-18T08:15:35;28.05;;;13.15;;
47335;SDS011;33068;51.990;5.926;2022-12-18T08:18:03;30.15;;;14.35;;
47335;SDS011;33068;51.990;5.926;2022-12-18T08:20:30;30.23;;;14.73;;
47335;SDS011;33068;51.990;5.926;2022-12-18T08:22:57;28.13;;;13.30;;
47335;SDS011;33068;51.990;5.926;2022-12-18T08:25:24;33.55;;;14.13;;
47335;SDS011;33068;51.990;5.926;2022-12-18T08:27:51;26.55;;;13.82;;
47335;SDS011;33068;51.990;5.926;2022-12-18T08:30:19;28.17;;;12.65;;
47335;SDS011;33068;51.990;5.926;2022-12-18T08:32:46;30.45;;;13.75;;
47335;SDS011;33068;51.990;5.926;2022-12-18T08:35:14;24.90;;;11.88;;
47335;SDS011;33068;51.990;5.926;2022-12-18T08:37:41;31.05;;;12.10;;
47335;SDS011;33068;51.990;5.926;2022-12-18T08:40:09;25.92;;;11.82;;
47335;SDS011;33068;51.990;5.926;2022-12-18T08:42:37;30.38;;;13.77;;
47335;SDS011;33068;51.990;5.926;2022-12-18T08:45:23;27.45;;;11.65;;
47335;SDS011;33068;51.990;5.926;2022-12-18T08:47:51;28.75;;;13.50;;
47335;SDS011;33068;51.990;5.926;2022-12-18T08:50:18;28.55;;;13.48;;
47335;SDS011;33068;51.990;5.926;2022-12-18T08:52:45;29.08;;;13.05;;
47335;SDS011;33068;51.990;5.926;2022-12-18T08:55:12;28.77;;;12.48;;
47335;SDS011;33068;51.990;5.926;2022-12-18T08:57:39;33.50;;;14.55;;
47335;SDS011;33068;51.990;5.926;2022-12-18T09:00:07;28.08;;;13.40;;
47335;SDS011;33068;51.990;5.926;2022-12-18T09:02:36;25.38;;;12.98;;
47335;SDS011;33068;51.990;5.926;2022-12-18T09:05:04;29.67;;;11.40;;
47335;SDS011;33068;51.990;5.926;2022-12-18T09:07:31;22.63;;;11.15;;
47335;SDS011;33068;51.990;5.926;2022-12-18T09:09:58;21.85;;;10.80;;
47335;SDS011;33068;51.990;5.926;2022-12-18T09:12:25;21.63;;;10.35;;
47335;SDS011;33068;51.990;5.926;2022-12-18T09:14:52;20.27;;;11.00;;
47335;SDS011;33068;51.990;5.926;2022-12-18T09:17:19;23.75;;;10.10;;
47335;SDS011;33068;51.990;5.926;2022-12-18T09:19:48;15.43;;;8.15;;
47335;SDS011;33068;51.990;5.926;2022-12-18T09:22:15;23.20;;;9.10;;
47335;SDS011;33068;51.990;5.926;2022-12-18T09:24:42;21.23;;;10.80;;
47335;SDS011;33068;51.990;5.926;2022-12-18T09:27:09;21.35;;;9.10;;
47335;SDS011;33068;51.990;5.926;2022-12-18T09:29:36;19.77;;;9.43;;
47335;SDS011;33068;51.990;5.926;2022-12-18T09:32:03;16.85;;;9.00;;
47335;SDS011;33068;51.990;5.926;2022-12-18T09:34:31;19.42;;;9.07;;
47335;SDS011;33068;51.990;5.926;2022-12-18T09:36:59;16.75;;;8.15;;
47335;SDS011;33068;51.990;5.926;2022-12-18T09:39:26;19.42;;;9.07;;
47335;SDS011;33068;51.990;5.926;2022-12-18T09:41:54;13.27;;;7.43;;
47335;SDS011;33068;51.990;5.926;2022-12-18T09:44:24;17.17;;;8.63;;
47335;SDS011;33068;51.990;5.926;2022-12-18T09:46:59;15.75;;;7.43;;
47335;SDS011;33068;51.990;5.926;2022-12-18T09:49:35;15.82;;;8.25;;
47335;SDS011;33068;51.990;5.926;2022-12-18T09:52:11;13.88;;;8.10;;
47335;SDS011;33068;51.990;5.926;2022-12-18T09:54:43;15.65;;;7.75;;
47335;SDS011;33068;51.990;5.926;2022-12-18T09:57:13;15.50;;;7.60;;
47335;SDS011;33068;51.990;5.926;2022-12-18T09:59:42;14.18;;;7.68;;
47335;SDS011;33068;51.990;5.926;2022-12-18T10:02:13;14.77;;;7.82;;
47335;SDS011;33068;51.990;5.926;2022-12-18T10:04:42;14.00;;;7.55;;
47335;SDS011;33068;51.990;5.926;2022-12-18T10:07:12;18.35;;;7.78;;
47335;SDS011;33068;51.990;5.926;2022-12-18T10:09:47;16.85;;;7.82;;
47335;SDS011;33068;51.990;5.926;2022-12-18T10:12:21;14.95;;;7.50;;
47335;SDS011;33068;51.990;5.926;2022-12-18T10:14:57;19.00;;;8.18;;
47335;SDS011;33068;51.990;5.926;2022-12-18T10:17:31;15.30;;;7.35;;
47335;SDS011;33068;51.990;5.926;2022-12-18T10:20:09;14.88;;;8.45;;
47335;SDS011;33068;51.990;5.926;2022-12-18T10:22:46;17.25;;;7.82;;
47335;SDS011;33068;51.990;5.926;2022-12-18T10:25:22;17.80;;;8.07;;
47335;SDS011;33068;51.990;5.926;2022-12-18T10:27:52;16.42;;;7.30;;
47335;SDS011;33068;51.990;5.926;2022-12-18T10:30:22;17.15;;;8.68;;
47335;SDS011;33068;51.990;5.926;2022-12-18T10:32:50;21.38;;;8.65;;
47335;SDS011;33068;51.990;5.926;2022-12-18T10:35:18;15.18;;;8.07;;
47335;SDS011;33068;51.990;5.926;2022-12-18T10:38:02;18.90;;;8.50;;
47335;SDS011;33068;51.990;5.926;2022-12-18T10:40:31;15.82;;;7.80;;
47335;SDS011;33068;51.990;5.926;2022-12-18T10:43:13;21.80;;;7.43;;
47335;SDS011;33068;51.990;5.926;2022-12-18T10:45:41;19.17;;;8.43;;
47335;SDS011;33068;51.990;5.926;2022-12-18T10:48:19;16.70;;;7.97;;
47335;SDS011;33068;51.990;5.926;2022-12-18T10:50:47;17.42;;;8.60;;
47335;SDS011;33068;51.990;5.926;2022-12-18T10:53:19;17.45;;;8.32;;
47335;SDS011;33068;51.990;5.926;2022-12-18T10:55:48;16.98;;;9.20;;
47335;SDS011;33068;51.990;5.926;2022-12-18T10:58:20;16.45;;;7.97;;
47335;SDS011;33068;51.990;5.926;2022-12-18T11:01:04;18.17;;;7.82;;
47335;SDS011;33068;51.990;5.926;2022-12-18T11:03:34;28.73;;;11.43;;
47335;SDS011;33068;51.990;5.926;2022-12-18T11:06:03;14.82;;;7.65;;
47335;SDS011;33068;51.990;5.926;2022-12-18T11:08:34;15.90;;;8.82;;
47335;SDS011;33068;51.990;5.926;2022-12-18T11:11:01;16.95;;;8.05;;
47335;SDS011;33068;51.990;5.926;2022-12-18T11:13:29;16.73;;;9.13;;
47335;SDS011;33068;51.990;5.926;2022-12-18T11:15:57;15.40;;;8.27;;
47335;SDS011;33068;51.990;5.926;2022-12-18T11:18:26;14.73;;;8.63;;
47335;SDS011;33068;51.990;5.926;2022-12-18T11:20:56;18.77;;;9.38;;
47335;SDS011;33068;51.990;5.926;2022-12-18T11:23:25;16.00;;;8.27;;
47335;SDS011;33068;51.990;5.926;2022-12-18T11:25:56;15.52;;;8.90;;
47335;SDS011;33068;51.990;5.926;2022-12-18T11:28:25;21.30;;;9.32;;
47335;SDS011;33068;51.990;5.926;2022-12-18T11:31:12;17.70;;;8.80;;
47335;SDS011;33068;51.990;5.926;2022-12-18T11:33:50;16.55;;;8.57;;
47335;SDS011;33068;51.990;5.926;2022-12-18T11:36:27;19.80;;;8.88;;
47335;SDS011;33068;51.990;5.926;2022-12-18T11:38:57;19.30;;;8.80;;
47335;SDS011;33068;51.990;5.926;2022-12-18T11:41:32;17.77;;;8.70;;
47335;SDS011;33068;51.990;5.926;2022-12-18T11:44:23;15.88;;;8.57;;
47335;SDS011;33068;51.990;5.926;2022-12-18T11:46:55;17.33;;;7.97;;
47335;SDS011;33068;51.990;5.926;2022-12-18T11:49:28;14.52;;;7.80;;
47335;SDS011;33068;51.990;5.926;2022-12-18T11:52:00;17.00;;;7.97;;
47335;SDS011;33068;51.990;5.926;2022-12-18T11:54:31;14.88;;;8.57;;
47335;SDS011;33068;51.990;5.926;2022-12-18T11:57:02;17.90;;;8.43;;
47335;SDS011;33068;51.990;5.926;2022-12-18T11:59:37;18.73;;;7.30;;
47335;SDS011;33068;51.990;5.926;2022-12-18T12:02:17;18.55;;;8.68;;
47335;SDS011;33068;51.990;5.926;2022-12-18T12:05:00;13.77;;;7.55;;
47335;SDS011;33068;51.990;5.926;2022-12-18T12:07:40;15.70;;;8.13;;
47335;SDS011;33068;51.990;5.926;2022-12-18T12:10:21;18.60;;;7.93;;
47335;SDS011;33068;51.990;5.926;2022-12-18T12:13:07;17.27;;;8.32;;
47335;SDS011;33068;51.990;5.926;2022-12-18T12:15:48;18.70;;;8.13;;
47335;SDS011;33068;51.990;5.926;2022-12-18T12:18:31;18.20;;;9.10;;
47335;SDS011;33068;51.990;5.926;2022-12-18T12:21:11;18.33;;;8.23;;
47335;SDS011;33068;51.990;5.926;2022-12-18T12:23:45;12.98;;;7.40;;
47335;SDS011;33068;51.990;5.926;2022-12-18T12:26:23;20.02;;;8.52;;
47335;SDS011;33068;51.990;5.926;2022-12-18T12:29:00;18.58;;;8.80;;
47335;SDS011;33068;51.990;5.926;2022-12-18T12:31:43;16.15;;;7.93;;
47335;SDS011;33068;51.990;5.926;2022-12-18T12:34:30;16.92;;;7.90;;
47335;SDS011;33068;51.990;5.926;2022-12-18T12:37:10;18.20;;;8.57;;
47335;SDS011;33068;51.990;5.926;2022-12-18T12:39:47;17.27;;;8.48;;
47335;SDS011;33068;51.990;5.926;2022-12-18T12:42:16;18.40;;;7.72;;
47335;SDS011;33068;51.990;5.926;2022-12-18T12:45:13;18.85;;;8.52;;
47335;SDS011;33068;51.990;5.926;2022-12-18T12:47:46;17.58;;;8.98;;
47335;SDS011;33068;51.990;5.926;2022-12-18T12:50:16;22.05;;;8.57;;
47335;SDS011;33068;51.990;5.926;2022-12-18T12:52:47;22.33;;;9.07;;
47335;SDS011;33068;51.990;5.926;2022-12-18T12:55:19;15.93;;;8.32;;
47335;SDS011;33068;51.990;5.926;2022-12-18T12:57:50;17.50;;;8.68;;
47335;SDS011;33068;51.990;5.926;2022-12-18T13:02:56;16.42;;;7.72;;
47335;SDS011;33068;51.990;5.926;2022-12-18T13:05:33;17.23;;;8.30;;
47335;SDS011;33068;51.990;5.926;2022-12-18T13:08:06;20.40;;;7.78;;
47335;SDS011;33068;51.990;5.926;2022-12-18T13:10:35;15.07;;;7.93;;
47335;SDS011;33068;51.990;5.926;2022-12-18T13:13:03;16.73;;;8.73;;
47335;SDS011;33068;51.990;5.926;2022-12-18T13:15:35;18.88;;;8.23;;
47335;SDS011;33068;51.990;5.926;2022-12-18T13:18:06;16.00;;;7.78;;
47335;SDS011;33068;51.990;5.926;2022-12-18T13:20:49;20.17;;;9.38;;
47335;SDS011;33068;51.990;5.926;2022-12-18T13:23:33;16.15;;;9.23;;
47335;SDS011;33068;51.990;5.926;2022-12-18T13:28:59;18.55;;;8.82;;
47335;SDS011;33068;51.990;5.926;2022-12-18T13:34:34;19.30;;;9.25;;
47335;SDS011;33068;51.990;5.926;2022-12-18T13:43:22;19.77;;;8.68;;
47335;SDS011;33068;51.990;5.926;2022-12-18T13:46:05;20.92;;;9.40;;
47335;SDS011;33068;51.990;5.926;2022-12-18T13:48:57;18.58;;;8.50;;
47335;SDS011;33068;51.990;5.926;2022-12-18T13:51:30;17.38;;;8.63;;
47335;SDS011;33068;51.990;5.926;2022-12-18T13:53:59;18.38;;;9.38;;
47335;SDS011;33068;51.990;5.926;2022-12-18T13:56:29;18.35;;;8.30;;
47335;SDS011;33068;51.990;5.926;2022-12-18T13:59:19;18.50;;;8.95;;
47335;SDS011;33068;51.990;5.926;2022-12-18T14:01:49;18.83;;;8.68;;
47335;SDS011;33068;51.990;5.926;2022-12-18T14:04:23;18.00;;;9.38;;
47335;SDS011;33068;51.990;5.926;2022-12-18T14:06:55;16.42;;;7.47;;
47335;SDS011;33068;51.990;5.926;2022-12-18T14:09:29;14.97;;;8.53;;
47335;SDS011;33068;51.990;5.926;2022-12-18T14:11:59;17.65;;;9.35;;
47335;SDS011;33068;51.990;5.926;2022-12-18T14:14:44;17.40;;;8.73;;
47335;SDS011;33068;51.990;5.926;2022-12-18T14:17:14;17.92;;;8.32;;
47335;SDS011;33068;51.990;5.926;2022-12-18T14:19:42;23.38;;;7.97;;
47335;SDS011;33068;51.990;5.926;2022-12-18T14:22:16;16.55;;;8.00;;
47335;SDS011;33068;51.990;5.926;2022-12-18T14:24:45;18.05;;;9.32;;
47335;SDS011;33068;51.990;5.926;2022-12-18T14:27:17;20.38;;;9.35;;
47335;SDS011;33068;51.990;5.926;2022-12-18T14:29:48;15.77;;;8.35;;
47335;SDS011;33068;51.990;5.926;2022-12-18T14:32:24;17.50;;;8.48;;
47335;SDS011;33068;51.990;5.926;2022-12-18T14:34:51;19.35;;;9.50;;
47335;SDS011;33068;51.990;5.926;2022-12-18T14:37:22;15.23;;;8.00;;
47335;SDS011;33068;51.990;5.926;2022-12-18T14:39:56;20.17;;;9.23;;
47335;SDS011;33068;51.990;5.926;2022-12-18T14:42:24;19.90;;;9.88;;
47335;SDS011;33068;51.990;5.926;2022-12-18T14:47:58;20.50;;;9.70;;
47335;SDS011;33068;51.990;5.926;2022-12-18T14:50:26;20.42;;;9.35;;
47335;SDS011;33068;51.990;5.926;2022-12-18T14:52:54;19.63;;;9.30;;
47335;SDS011;33068;51.990;5.926;2022-12-18T14:55:22;16.35;;;8.63;;
47335;SDS011;33068;51.990;5.926;2022-12-18T14:57:49;22.90;;;10.40;;
47335;SDS011;33068;51.990;5.926;2022-12-18T15:00:19;22.23;;;10.18;;
47335;SDS011;33068;51.990;5.926;2022-12-18T15:02:49;22.65;;;9.40;;
47335;SDS011;33068;51.990;5.926;2022-12-18T15:05:19;27.50;;;10.35;;